createdAt,value
2023-05-11T00:02:28.524Z,9.38
2023-05-11T00:05:31.156Z,9.37
2023-05-11T00:08:34.000Z,9.31
2023-05-11T00:11:39.725Z,9.25
2023-05-11T00:14:42.414Z,9.17
2023-05-11T00:17:45.623Z,8.88
2023-05-11T00:20:48.289Z,8.64
2023-05-11T00:23:53.230Z,8.39
2023-05-11T00:26:56.123Z,8.10
2023-05-11T00:29:58.726Z,7.86
2023-05-11T00:33:01.769Z,7.75
2023-05-11T00:36:04.595Z,7.70
2023-05-11T00:39:07.319Z,7.57
2023-05-11T00:42:11.412Z,7.50
2023-05-11T00:45:14.204Z,7.33
2023-05-11T00:48:17.095Z,7.28
2023-05-11T00:51:21.514Z,7.33
2023-05-11T00:54:24.834Z,7.67
2023-05-11T00:57:27.548Z,7.93
2023-05-11T01:00:30.206Z,7.87
2023-05-11T01:03:33.505Z,7.75
2023-05-11T01:06:42.578Z,7.73
2023-05-11T01:10:06.619Z,7.83
2023-05-11T01:13:35.396Z,7.96
2023-05-11T01:16:42.928Z,8.15
2023-05-11T01:19:59.210Z,8.14
2023-05-11T01:23:17.679Z,8.10
2023-05-11T01:26:42.079Z,8.03
2023-05-11T01:29:56.935Z,7.77
2023-05-11T01:33:09.574Z,7.52
2023-05-11T01:36:13.138Z,7.32
2023-05-11T01:39:17.930Z,7.07
2023-05-11T01:42:32.749Z,7.13
2023-05-11T01:45:41.079Z,7.00
2023-05-11T01:48:47.088Z,7.12
2023-05-11T01:51:51.633Z,7.13
2023-05-11T01:54:56.320Z,7.12
2023-05-11T01:58:02.206Z,7.16
2023-05-11T02:01:05.353Z,7.15
2023-05-11T02:04:09.288Z,7.17
2023-05-11T02:07:13.955Z,7.12
2023-05-11T02:10:17.693Z,7.18
2023-05-11T02:13:20.875Z,7.19
2023-05-11T02:16:24.746Z,7.20
2023-05-11T02:19:29.863Z,7.28
2023-05-11T02:22:32.792Z,7.18
2023-05-11T02:25:36.909Z,7.22
2023-05-11T02:28:39.603Z,7.10
2023-05-11T02:31:45.869Z,6.95
2023-05-11T02:35:00.479Z,6.90
2023-05-11T02:38:07.095Z,6.98
2023-05-11T02:41:19.487Z,7.02
2023-05-11T02:44:22.861Z,6.98
2023-05-11T02:47:29.431Z,6.85
2023-05-11T02:50:36.410Z,6.72
2023-05-11T02:53:41.529Z,6.63
2023-05-11T02:56:45.134Z,6.73
2023-05-11T02:59:48.056Z,6.63
2023-05-11T03:02:50.837Z,6.69
2023-05-11T03:05:56.608Z,6.65
2023-05-11T03:09:00.702Z,6.65
2023-05-11T03:12:04.297Z,6.67
2023-05-11T03:15:14.670Z,6.74
2023-05-11T03:18:24.221Z,6.82
2023-05-11T03:21:27.552Z,6.81
2023-05-11T03:24:30.725Z,6.86
2023-05-11T03:27:35.120Z,6.96
2023-05-11T03:30:38.213Z,7.13
2023-05-11T03:33:40.878Z,7.25
2023-05-11T03:36:48.372Z,7.29
2023-05-11T03:40:00.043Z,7.44
2023-05-11T03:43:09.036Z,7.55
2023-05-11T03:46:14.059Z,7.57
2023-05-11T03:49:18.762Z,7.75
2023-05-11T03:52:22.054Z,7.82
2023-05-11T03:55:24.778Z,7.91
2023-05-11T03:58:27.751Z,7.99
2023-05-11T04:01:33.978Z,8.05
2023-05-11T04:04:40.326Z,8.20
2023-05-11T04:07:43.922Z,8.35
2023-05-11T04:10:46.635Z,8.44
2023-05-11T04:13:49.696Z,8.59
2023-05-11T04:16:52.353Z,8.75
2023-05-11T04:19:54.948Z,8.86
2023-05-11T04:22:57.585Z,9.02
2023-05-11T04:26:02.986Z,9.23
2023-05-11T04:29:05.570Z,9.38
2023-05-11T04:32:08.244Z,9.49
2023-05-11T04:35:11.027Z,9.60
2023-05-11T04:38:15.115Z,9.72
2023-05-11T04:41:22.829Z,9.79
2023-05-11T04:44:35.160Z,9.94
2023-05-11T04:47:37.857Z,10.05
2023-05-11T04:50:41.714Z,10.14
2023-05-11T04:53:44.928Z,10.16
2023-05-11T04:56:47.668Z,10.28
2023-05-11T04:59:50.877Z,10.47
2023-05-11T05:02:53.579Z,10.60
2023-05-11T05:05:56.356Z,10.77
2023-05-11T05:08:58.994Z,10.95
2023-05-11T05:12:01.840Z,11.14
2023-05-11T05:15:05.819Z,11.22
2023-05-11T05:18:11.576Z,11.45
2023-05-11T05:21:14.323Z,11.55
2023-05-11T05:24:17.022Z,11.69
2023-05-11T05:27:22.921Z,11.75
2023-05-11T05:30:27.302Z,11.65
2023-05-11T05:33:30.149Z,12.11
2023-05-11T05:36:33.293Z,12.25
2023-05-11T05:39:38.905Z,12.30
2023-05-11T05:42:42.457Z,12.40
2023-05-11T05:45:49.024Z,12.54
2023-05-11T05:48:52.162Z,12.67
2023-05-11T05:51:55.033Z,12.88
2023-05-11T05:54:57.821Z,12.83
2023-05-11T05:58:03.575Z,12.89
2023-05-11T06:01:09.852Z,13.22
2023-05-11T06:04:16.306Z,13.27
2023-05-11T06:07:21.647Z,13.43
2023-05-11T06:10:24.257Z,13.59
2023-05-11T06:13:28.095Z,13.62
2023-05-11T06:16:31.276Z,13.74
2023-05-11T06:19:35.423Z,13.90
2023-05-11T06:22:41.146Z,14.08
2023-05-11T06:25:47.654Z,14.06
2023-05-11T06:28:53.876Z,14.25
2023-05-11T06:31:56.982Z,14.24
2023-05-11T06:35:02.911Z,14.62
2023-05-11T06:38:09.731Z,14.92
2023-05-11T06:41:13.329Z,14.86
2023-05-11T06:44:16.066Z,15.16
2023-05-11T06:47:21.305Z,15.33
2023-05-11T06:50:27.814Z,15.34
2023-05-11T06:53:30.846Z,15.60
2023-05-11T06:56:35.123Z,15.91
2023-05-11T06:59:38.331Z,15.98
2023-05-11T07:02:44.222Z,16.16
2023-05-11T07:05:47.209Z,16.22
2023-05-11T07:08:49.849Z,16.39
2023-05-11T07:11:52.933Z,16.39
2023-05-11T07:14:57.875Z,16.53
2023-05-11T07:18:02.483Z,16.49
2023-05-11T07:21:05.373Z,16.45
2023-05-11T07:24:08.984Z,16.58
2023-05-11T07:27:16.128Z,16.83
2023-05-11T07:30:21.266Z,16.66
2023-05-11T07:33:24.034Z,16.99
2023-05-11T07:36:26.867Z,17.05
2023-05-11T07:39:29.715Z,16.72
2023-05-11T07:42:33.142Z,17.10
2023-05-11T07:45:35.746Z,17.19
2023-05-11T07:48:39.042Z,16.79
2023-05-11T07:51:42.960Z,17.12
2023-05-11T07:54:48.331Z,17.26
2023-05-11T07:57:54.202Z,17.38
2023-05-11T08:00:57.682Z,17.46
2023-05-11T08:04:01.088Z,17.78
2023-05-11T08:07:04.599Z,17.65
2023-05-11T08:10:08.080Z,17.69
2023-05-11T08:13:11.270Z,17.51
2023-05-11T08:16:14.190Z,18.07
2023-05-11T08:19:17.135Z,18.35
2023-05-11T08:22:19.844Z,18.30
2023-05-11T08:25:22.554Z,18.61
2023-05-11T08:28:28.408Z,18.46
2023-05-11T08:31:31.645Z,18.90
2023-05-11T08:34:34.841Z,18.91
2023-05-11T08:37:37.820Z,19.20
2023-05-11T08:40:48.364Z,19.16
2023-05-11T08:43:52.047Z,19.17
2023-05-11T08:47:08.634Z,18.94
2023-05-11T08:50:17.854Z,18.99
2023-05-11T08:53:29.051Z,19.11
2023-05-11T08:56:35.049Z,18.79
2023-05-11T08:59:42.421Z,19.02
2023-05-11T09:02:45.609Z,19.22
2023-05-11T09:05:52.426Z,19.38
2023-05-11T09:08:59.356Z,19.37
2023-05-11T09:12:02.467Z,19.25
2023-05-11T09:15:11.255Z,19.53
2023-05-11T09:18:13.967Z,19.38
2023-05-11T09:21:17.694Z,19.55
2023-05-11T09:24:22.773Z,19.25
2023-05-11T09:27:29.173Z,19.41
2023-05-11T09:30:34.284Z,19.41
2023-05-11T09:33:38.121Z,19.45
2023-05-11T09:36:42.453Z,19.64
2023-05-11T09:40:13.904Z,19.38
2023-05-11T09:43:19.187Z,19.73
2023-05-11T09:46:22.342Z,19.46
2023-05-11T09:49:29.680Z,19.48
2023-05-11T09:52:32.538Z,19.94
2023-05-11T09:55:35.582Z,19.86
2023-05-11T09:58:49.614Z,20.26
2023-05-11T10:01:58.852Z,20.07
2023-05-11T10:05:10.925Z,20.12
2023-05-11T10:08:13.633Z,19.99
2023-05-11T10:11:16.268Z,20.08
2023-05-11T10:14:22.696Z,20.59
2023-05-11T10:17:26.054Z,21.03
2023-05-11T10:20:28.649Z,20.85
2023-05-11T10:23:33.917Z,20.50
2023-05-11T10:26:36.800Z,20.17
2023-05-11T10:29:39.689Z,20.50
2023-05-11T10:32:43.408Z,20.73
2023-05-11T10:35:46.236Z,20.75
2023-05-11T10:38:48.792Z,20.64
2023-05-11T10:41:51.668Z,20.39
2023-05-11T10:45:13.100Z,20.06
2023-05-11T10:48:53.414Z,20.23
2023-05-11T10:52:41.466Z,20.36
2023-05-11T10:56:20.504Z,20.78
2023-05-11T10:59:41.935Z,21.17
2023-05-11T11:02:45.548Z,21.74
2023-05-11T11:05:48.483Z,22.04
2023-05-11T11:08:59.027Z,22.36
2023-05-11T11:12:09.906Z,21.79
2023-05-11T11:15:12.529Z,21.61
2023-05-11T11:18:29.186Z,21.84
2023-05-11T11:21:42.811Z,21.84
2023-05-11T11:24:47.133Z,22.12
2023-05-11T11:27:49.982Z,22.18
2023-05-11T11:31:26.508Z,22.24
2023-05-11T11:34:32.296Z,21.89
2023-05-11T11:38:00.448Z,21.51
2023-05-11T11:41:03.588Z,21.37
2023-05-11T11:44:20.098Z,20.90
2023-05-11T11:47:23.777Z,20.94
2023-05-11T11:50:28.099Z,20.80
2023-05-11T11:53:41.071Z,20.70
2023-05-11T11:56:45.086Z,20.04
2023-05-11T11:59:47.951Z,19.57
2023-05-11T12:02:50.856Z,19.76
2023-05-11T12:05:55.896Z,19.70
2023-05-11T12:09:01.792Z,19.97
2023-05-11T12:12:06.038Z,19.58
2023-05-11T12:15:10.131Z,19.88
2023-05-11T12:18:22.498Z,20.29
2023-05-11T12:21:29.350Z,20.34
2023-05-11T12:24:32.591Z,20.40
2023-05-11T12:27:35.280Z,20.27
2023-05-11T12:30:38.845Z,19.89
2023-05-11T12:33:48.307Z,20.02
2023-05-11T12:36:54.207Z,20.22
2023-05-11T12:39:59.958Z,20.23
2023-05-11T12:43:02.673Z,19.93
2023-05-11T12:46:08.256Z,20.02
2023-05-11T12:49:14.036Z,19.96
2023-05-11T12:52:16.739Z,20.02
2023-05-11T12:55:29.396Z,20.30
2023-05-11T12:58:39.236Z,20.03
2023-05-11T13:01:42.114Z,20.12
2023-05-11T13:04:45.738Z,19.84
2023-05-11T13:07:48.796Z,19.71
2023-05-11T13:10:53.250Z,19.15
2023-05-11T13:13:57.320Z,18.80
2023-05-11T13:17:00.138Z,18.86
2023-05-11T13:20:31.247Z,18.77
2023-05-11T13:23:33.970Z,18.47
2023-05-11T13:26:36.612Z,18.68
2023-05-11T13:29:39.269Z,18.88
2023-05-11T13:32:41.870Z,18.94
2023-05-11T13:35:45.366Z,18.78
2023-05-11T13:38:47.971Z,18.76
2023-05-11T13:41:55.640Z,18.62
2023-05-11T13:44:59.176Z,18.68
2023-05-11T13:48:01.914Z,18.37
2023-05-11T13:51:07.546Z,18.12
2023-05-11T13:54:12.504Z,17.90
2023-05-11T13:57:15.393Z,17.95
2023-05-11T14:00:25.511Z,17.93
2023-05-11T14:03:30.684Z,17.87
2023-05-11T14:06:34.706Z,17.67
2023-05-11T14:09:48.735Z,17.49
2023-05-11T14:12:52.239Z,17.37
2023-05-11T14:15:54.896Z,17.19
2023-05-11T14:18:57.624Z,16.97
2023-05-11T14:22:01.196Z,16.77
2023-05-11T14:25:03.840Z,16.63
2023-05-11T14:28:07.002Z,16.48
2023-05-11T14:31:09.585Z,16.51
2023-05-11T14:34:13.362Z,16.46
2023-05-11T14:37:16.039Z,16.44
2023-05-11T14:40:24.918Z,16.49
2023-05-11T14:43:30.661Z,16.42
2023-05-11T14:46:36.231Z,16.36
2023-05-11T14:49:38.949Z,16.30
2023-05-11T14:52:42.642Z,16.30
2023-05-11T14:55:45.318Z,16.26
2023-05-11T14:58:47.902Z,16.04
2023-05-11T15:01:51.277Z,15.93
2023-05-11T15:04:54.044Z,15.84
2023-05-11T15:07:59.036Z,15.68
2023-05-11T15:11:02.444Z,15.45
2023-05-11T15:14:06.431Z,15.41
2023-05-11T15:17:09.240Z,15.31
2023-05-11T15:20:20.094Z,15.29
2023-05-11T15:23:22.699Z,15.23
2023-05-11T15:26:25.311Z,15.30
2023-05-11T15:29:27.846Z,15.31
2023-05-11T15:32:30.607Z,15.25
2023-05-11T15:35:36.791Z,15.23
2023-05-11T15:38:39.913Z,15.11
2023-05-11T15:41:42.517Z,14.91
2023-05-11T15:44:45.051Z,14.65
2023-05-11T15:47:49.579Z,14.43
2023-05-11T15:50:52.885Z,14.34
2023-05-11T15:53:55.449Z,14.14
2023-05-11T15:56:58.813Z,13.99
2023-05-11T16:00:01.628Z,13.82
2023-05-11T16:03:10.722Z,13.78
2023-05-11T16:06:13.817Z,13.69
2023-05-11T16:09:16.872Z,13.60
2023-05-11T16:12:19.423Z,13.64
2023-05-11T16:15:22.146Z,13.61
2023-05-11T16:18:25.083Z,13.42
2023-05-11T16:21:33.651Z,13.22
2023-05-11T16:24:36.193Z,13.02
2023-05-11T16:27:38.895Z,12.77
2023-05-11T16:30:41.622Z,12.66
2023-05-11T16:33:44.327Z,12.50
2023-05-11T16:36:46.854Z,12.30
2023-05-11T16:39:49.525Z,12.09
2023-05-11T16:42:52.135Z,12.09
2023-05-11T16:45:59.835Z,12.00
2023-05-11T16:49:04.525Z,11.96
2023-05-11T16:52:07.206Z,11.80
2023-05-11T16:55:10.393Z,11.89
2023-05-11T16:58:13.112Z,11.79
2023-05-11T17:01:16.018Z,11.69
2023-05-11T17:04:18.798Z,11.65
2023-05-11T17:07:21.550Z,11.60
2023-05-11T17:10:27.300Z,11.40
2023-05-11T17:13:29.976Z,11.48
2023-05-11T17:16:33.199Z,11.42
2023-05-11T17:19:35.928Z,11.35
2023-05-11T17:22:38.506Z,11.33
2023-05-11T17:25:44.633Z,11.25
2023-05-11T17:28:47.439Z,11.17
2023-05-11T17:31:51.904Z,10.98
2023-05-11T17:34:54.970Z,11.01
2023-05-11T17:37:57.625Z,11.00
2023-05-11T17:41:06.960Z,10.97
2023-05-11T17:44:09.543Z,10.93
2023-05-11T17:47:12.191Z,10.90
2023-05-11T17:50:14.812Z,10.84
2023-05-11T17:53:18.877Z,10.68
2023-05-11T17:56:22.345Z,10.77
2023-05-11T17:59:24.963Z,10.67
2023-05-11T18:02:27.632Z,10.62
2023-05-11T18:05:40.440Z,10.60
2023-05-11T18:08:49.961Z,10.55
2023-05-11T18:11:52.545Z,10.49
2023-05-11T18:15:00.892Z,10.49
2023-05-11T18:18:03.624Z,10.45
2023-05-11T18:21:07.374Z,10.45
2023-05-11T18:24:10.702Z,10.47
2023-05-11T18:27:13.183Z,10.47
2023-05-11T18:30:15.976Z,10.49
2023-05-11T18:33:29.776Z,10.43
2023-05-11T18:36:32.360Z,10.39
2023-05-11T18:39:35.531Z,10.39
2023-05-11T18:42:38.150Z,10.33
2023-05-11T18:45:41.356Z,10.39
2023-05-11T18:48:44.602Z,10.35
2023-05-11T18:51:47.501Z,10.26
2023-05-11T18:54:50.046Z,10.07
2023-05-11T18:57:54.652Z,10.23
2023-05-11T19:00:57.368Z,10.14
2023-05-11T19:04:02.974Z,10.01
2023-05-11T19:07:06.025Z,10.10
2023-05-11T19:10:09.126Z,10.07
2023-05-11T19:13:14.300Z,10.04
2023-05-11T19:16:16.955Z,10.02
2023-05-11T19:19:19.723Z,9.98
2023-05-11T19:22:22.757Z,9.98
2023-05-11T19:25:28.648Z,9.99
2023-05-11T19:28:35.284Z,9.91
2023-05-11T19:31:38.167Z,9.85
2023-05-11T19:34:40.801Z,9.97
2023-05-11T19:37:43.496Z,9.94
2023-05-11T19:40:46.725Z,9.79
2023-05-11T19:43:49.626Z,9.86
2023-05-11T19:46:52.197Z,9.95
2023-05-11T19:49:54.780Z,9.93
2023-05-11T19:52:57.678Z,9.91
2023-05-11T19:56:00.472Z,9.91
2023-05-11T19:59:04.013Z,9.88
2023-05-11T20:02:07.573Z,9.80
2023-05-11T20:05:10.568Z,9.85
2023-05-11T20:08:13.650Z,9.88
2023-05-11T20:11:19.073Z,9.91
2023-05-11T20:14:24.316Z,9.78
2023-05-11T20:17:27.028Z,9.84
2023-05-11T20:20:31.260Z,9.87
2023-05-11T20:23:35.268Z,9.88
2023-05-11T20:26:39.680Z,9.87
2023-05-11T20:29:42.235Z,9.82
2023-05-11T20:35:56.515Z,9.83
2023-05-11T20:38:59.155Z,9.81
2023-05-11T20:42:04.440Z,9.81
2023-05-11T20:45:09.398Z,9.80
2023-05-11T20:48:13.615Z,9.74
2023-05-11T20:51:16.584Z,9.84
2023-05-11T20:54:19.285Z,9.77
2023-05-11T20:57:22.034Z,9.84
2023-05-11T21:00:26.791Z,9.69
2023-05-11T21:03:29.460Z,9.81
2023-05-11T21:06:33.048Z,9.87
2023-05-11T21:09:35.802Z,9.89
2023-05-11T21:12:41.446Z,9.91
2023-05-11T21:15:44.110Z,9.90
2023-05-11T21:18:47.095Z,9.90
2023-05-11T21:21:49.849Z,9.82
2023-05-11T21:24:52.765Z,9.86
2023-05-11T21:27:57.830Z,9.85
2023-05-11T21:31:00.660Z,9.71
2023-05-11T21:34:03.308Z,9.72
2023-05-11T21:37:14.710Z,9.75
2023-05-11T21:40:18.264Z,9.74
2023-05-11T21:43:21.317Z,9.70
2023-05-11T21:46:23.896Z,9.66
2023-05-11T21:49:26.500Z,9.63
2023-05-11T21:52:29.157Z,9.59
2023-05-11T21:55:32.548Z,9.54
2023-05-11T21:58:35.238Z,9.41
2023-05-11T22:01:41.559Z,9.50
2023-05-11T22:04:46.493Z,9.35
2023-05-11T22:07:49.126Z,9.50
2023-05-11T22:10:53.050Z,9.48
2023-05-11T22:14:02.334Z,9.45
2023-05-11T22:17:05.025Z,9.44
2023-05-11T22:20:08.413Z,9.44
2023-05-11T22:23:11.424Z,9.39
2023-05-11T22:26:14.341Z,9.42
2023-05-11T22:29:16.918Z,9.39
2023-05-11T22:32:21.841Z,9.40
2023-05-11T22:35:24.546Z,9.27
2023-05-11T22:38:27.165Z,9.30
2023-05-11T22:41:29.701Z,9.34
2023-05-11T22:44:32.491Z,9.29
2023-05-11T22:47:36.959Z,9.28
2023-05-11T22:50:46.647Z,9.28
2023-05-11T22:53:49.373Z,9.30
2023-05-11T22:56:52.516Z,9.05
2023-05-11T22:59:55.125Z,9.35
2023-05-11T23:02:57.873Z,9.36
2023-05-11T23:06:00.535Z,9.38
2023-05-11T23:09:05.004Z,9.28
2023-05-11T23:12:08.260Z,9.36
2023-05-11T23:15:11.177Z,9.35
2023-05-11T23:18:13.862Z,9.32
2023-05-11T23:21:16.483Z,9.33
2023-05-11T23:24:21.751Z,9.31
2023-05-11T23:27:24.864Z,9.30
2023-05-11T23:30:27.455Z,9.29
2023-05-11T23:33:30.062Z,9.23
2023-05-11T23:36:33.850Z,9.32
2023-05-11T23:39:36.535Z,9.26
2023-05-11T23:42:39.340Z,9.32
2023-05-11T23:45:42.036Z,9.26
2023-05-11T23:48:44.743Z,9.17
2023-05-11T23:51:47.264Z,9.22
2023-05-11T23:54:52.591Z,9.04
2023-05-11T23:57:58.753Z,9.30
